sensor_id;sensor_type;location;lat;lon;timestamp;pressure;altitude;pressure_sealevel;temperature;humidity
46614;BME280;32338;50.430;6.806;2023-03-18T00:01:37;66264.66;;;7.82;100.00
46614;BME280;32338;50.430;6.806;2023-03-18T00:04:04;66264.47;;;7.79;100.00
46614;BME280;32338;50.430;6.806;2023-03-18T00:06:31;66269.69;;;7.79;100.00
46614;BME280;32338;50.430;6.806;2023-03-18T00:08:58;66279.09;;;7.92;100.00
46614;BME280;32338;50.430;6.806;2023-03-18T00:11:25;66265.78;;;7.83;100.00
46614;BME280;32338;50.430;6.806;2023-03-18T00:13:53;66257.91;;;7.75;100.00
46614;BME280;32338;50.430;6.806;2023-03-18T00:16:19;66268.56;;;7.78;100.00
46614;BME280;32338;50.430;6.806;2023-03-18T00:18:46;66274.19;;;7.83;100.00
46614;BME280;32338;50.430;6.806;2023-03-18T00:21:13;66276.63;;;7.88;100.00
46614;BME280;32338;50.430;6.806;2023-03-18T00:23:41;66280.38;;;7.89;100.00
46614;BME280;32338;50.430;6.806;2023-03-18T00:26:08;66267.28;;;7.82;100.00
46614;BME280;32338;50.430;6.806;2023-03-18T00:28:35;66265.03;;;7.79;100.00
46614;BME280;32338;50.430;6.806;2023-03-18T00:31:06;66263.34;;;7.78;100.00
46614;BME280;32338;50.430;6.806;2023-03-18T00:33:34;66264.06;;;7.74;100.00
46614;BME280;32338;50.430;6.806;2023-03-18T00:36:01;66272.28;;;7.79;100.00
46614;BME280;32338;50.430;6.806;2023-03-18T00:38:28;66259.41;;;7.74;100.00
46614;BME280;32338;50.430;6.806;2023-03-18T00:40:55;66259.41;;;7.74;100.00
46614;BME280;32338;50.430;6.806;2023-03-18T00:43:36;66263.13;;;7.75;100.00
46614;BME280;32338;50.430;6.806;2023-03-18T00:46:12;66264.25;;;7.76;100.00
46614;BME280;32338;50.430;6.806;2023-03-18T00:48:40;66265.75;;;7.75;100.00
46614;BME280;32338;50.430;6.806;2023-03-18T00:51:07;66256.03;;;7.71;100.00
46614;BME280;32338;50.430;6.806;2023-03-18T00:53:35;66276.25;;;7.90;100.00
46614;BME280;32338;50.430;6.806;2023-03-18T00:56:03;66262.78;;;7.77;100.00
46614;BME280;32338;50.430;6.806;2023-03-18T00:58:30;66260.69;;;7.71;100.00
46614;BME280;32338;50.430;6.806;2023-03-18T01:00:57;66268.56;;;7.78;100.00
46614;BME280;32338;50.430;6.806;2023-03-18T01:03:25;66256.03;;;7.71;100.00
46614;BME280;32338;50.430;6.806;2023-03-18T01:05:52;66257.13;;;7.65;100.00
46614;BME280;32338;50.430;6.806;2023-03-18T01:08:18;66256.03;;;7.71;100.00
46614;BME280;32338;50.430;6.806;2023-03-18T01:10:46;66259.34;;;7.67;100.00
46614;BME280;32338;50.430;6.806;2023-03-18T01:13:12;66257.13;;;7.65;100.00
46614;BME280;32338;50.430;6.806;2023-03-18T01:15:40;66250.19;;;7.63;100.00
46614;BME280;32338;50.430;6.806;2023-03-18T01:18:07;66254.13;;;7.67;100.00
46614;BME280;32338;50.430;6.806;2023-03-18T01:20:37;66248.53;;;7.62;100.00
46614;BME280;32338;50.430;6.806;2023-03-18T01:23:04;66252.47;;;7.66;100.00
46614;BME280;32338;50.430;6.806;2023-03-18T01:25:31;66250.97;;;7.67;100.00
46614;BME280;32338;50.430;6.806;2023-03-18T01:27:58;66253.94;;;7.65;100.00
46614;BME280;32338;50.430;6.806;2023-03-18T01:30:25;66249.84;;;7.66;100.00
46614;BME280;32338;50.430;6.806;2023-03-18T01:32:52;66247.75;;;7.59;100.00
46614;BME280;32338;50.430;6.806;2023-03-18T01:35:20;66248.53;;;7.62;100.00
46614;BME280;32338;50.430;6.806;2023-03-18T01:37:48;66248.13;;;7.57;100.00
46614;BME280;32338;50.430;6.806;2023-03-18T01:40:16;66236.94;;;7.54;100.00
46614;BME280;32338;50.430;6.806;2023-03-18T01:42:47;66240.44;;;7.52;100.00
46614;BME280;32338;50.430;6.806;2023-03-18T01:45:18;66238.75;;;7.51;100.00
46614;BME280;32338;50.430;6.806;2023-03-18T01:47:46;66241.78;;;7.56;100.00
46614;BME280;32338;50.430;6.806;2023-03-18T01:50:16;66233.53;;;7.51;100.00
46614;BME280;32338;50.430;6.806;2023-03-18T01:52:45;66241.03;;;7.53;100.00
46614;BME280;32338;50.430;6.806;2023-03-18T01:55:17;66238.03;;;7.55;100.00
46614;BME280;32338;50.430;6.806;2023-03-18T01:57:45;66238.41;;;7.53;100.00
46614;BME280;32338;50.430;6.806;2023-03-18T02:00:14;66235.81;;;7.53;100.00
46614;BME280;32338;50.430;6.806;2023-03-18T02:02:43;66248.53;;;7.62;100.00
46614;BME280;32338;50.430;6.806;2023-03-18T02:05:13;66241.22;;;7.55;100.00
46614;BME280;32338;50.430;6.806;2023-03-18T02:07:42;66244.97;;;7.56;100.00
46614;BME280;32338;50.430;6.806;2023-03-18T02:10:14;66237.69;;;7.57;100.00
46614;BME280;32338;50.430;6.806;2023-03-18T02:12:44;66246.06;;;7.57;100.00
46614;BME280;32338;50.430;6.806;2023-03-18T02:15:14;66256.19;;;7.67;100.00
46614;BME280;32338;50.430;6.806;2023-03-18T02:17:44;66247.03;;;7.63;100.00
46614;BME280;32338;50.430;6.806;2023-03-18T02:20:18;66246.84;;;7.60;100.00
46614;BME280;32338;50.430;6.806;2023-03-18T02:22:51;66256.75;;;7.67;100.00
46614;BME280;32338;50.430;6.806;2023-03-18T02:25:30;66251.31;;;7.65;100.00
46614;BME280;32338;50.430;6.806;2023-03-18T02:28:02;66252.81;;;7.63;100.00
46614;BME280;32338;50.430;6.806;2023-03-18T02:30:32;66255.25;;;7.68;100.00
46614;BME280;32338;50.430;6.806;2023-03-18T02:33:01;66240.84;;;7.57;100.00
46614;BME280;32338;50.430;6.806;2023-03-18T02:35:29;66241.78;;;7.56;100.00
46614;BME280;32338;50.430;6.806;2023-03-18T02:37:56;66241.94;;;7.51;100.00
46614;BME280;32338;50.430;6.806;2023-03-18T02:40:26;66237.63;;;7.50;100.00
46614;BME280;32338;50.430;6.806;2023-03-18T02:42:53;66229.41;;;7.44;100.00
46614;BME280;32338;50.430;6.806;2023-03-18T02:45:30;66224.56;;;7.42;100.00
46614;BME280;32338;50.430;6.806;2023-03-18T02:48:00;66222.31;;;7.40;100.00
46614;BME280;32338;50.430;6.806;2023-03-18T02:50:28;66228.09;;;7.41;100.00
46614;BME280;32338;50.430;6.806;2023-03-18T02:52:55;66227.53;;;7.40;100.00
46614;BME280;32338;50.430;6.806;2023-03-18T02:55:22;66229.00;;;7.39;100.00
46614;BME280;32338;50.430;6.806;2023-03-18T02:57:49;66228.50;;;7.46;100.00
46614;BME280;32338;50.430;6.806;2023-03-18T03:00:16;66236.50;;;7.49;100.00
46614;BME280;32338;50.430;6.806;2023-03-18T03:02:44;66228.09;;;7.41;100.00
46614;BME280;32338;50.430;6.806;2023-03-18T03:05:11;66218.94;;;7.37;100.00
46614;BME280;32338;50.430;6.806;2023-03-18T03:07:38;66215.19;;;7.29;100.00
46614;BME280;32338;50.430;6.806;2023-03-18T03:10:06;66206.56;;;7.26;100.00
46614;BME280;32338;50.430;6.806;2023-03-18T03:12:33;66233.69;;;7.46;100.00
46614;BME280;32338;50.430;6.806;2023-03-18T03:15:02;66226.75;;;7.37;100.00
46614;BME280;32338;50.430;6.806;2023-03-18T03:17:29;66210.69;;;7.25;100.00
46614;BME280;32338;50.430;6.806;2023-03-18T03:19:57;66205.81;;;7.23;100.00
46614;BME280;32338;50.430;6.806;2023-03-18T03:22:24;66201.53;;;7.21;100.00
46614;BME280;32338;50.430;6.806;2023-03-18T03:24:51;66201.88;;;7.19;100.00
46614;BME280;32338;50.430;6.806;2023-03-18T03:27:18;66197.94;;;7.16;100.00
46614;BME280;32338;50.430;6.806;2023-03-18T03:29:45;66193.09;;;7.13;100.00
46614;BME280;32338;50.430;6.806;2023-03-18T03:32:12;66197.75;;;7.13;100.00
46614;BME280;32338;50.430;6.806;2023-03-18T03:34:39;66188.19;;;7.04;100.00
46614;BME280;32338;50.430;6.806;2023-03-18T03:37:07;66183.16;;;7.00;100.00
46614;BME280;32338;50.430;6.806;2023-03-18T03:39:33;66175.28;;;6.92;100.00
46614;BME280;32338;50.430;6.806;2023-03-18T03:42:00;66174.38;;;6.94;100.00
46614;BME280;32338;50.430;6.806;2023-03-18T03:44:27;66168.75;;;6.89;100.00
46614;BME280;32338;50.430;6.806;2023-03-18T03:46:54;66169.66;;;6.87;100.00
46614;BME280;32338;50.430;6.806;2023-03-18T03:49:21;66154.16;;;6.75;100.00
46614;BME280;32338;50.430;6.806;2023-03-18T03:51:47;66146.44;;;6.63;100.00
46614;BME280;32338;50.430;6.806;2023-03-18T03:54:15;66144.94;;;6.64;100.00
46614;BME280;32338;50.430;6.806;2023-03-18T03:56:44;66133.38;;;6.56;100.00
46614;BME280;32338;50.430;6.806;2023-03-18T03:59:10;66122.91;;;6.49;100.00
46614;BME280;32338;50.430;6.806;2023-03-18T04:01:37;66120.81;;;6.42;100.00
46614;BME280;32338;50.430;6.806;2023-03-18T04:04:04;66107.75;;;6.35;100.00
46614;BME280;32338;50.430;6.806;2023-03-18T04:06:31;66103.22;;;6.24;100.00
46614;BME280;32338;50.430;6.806;2023-03-18T04:08:57;66091.63;;;6.15;100.00
46614;BME280;32338;50.430;6.806;2023-03-18T04:11:25;66088.28;;;6.12;100.00
46614;BME280;32338;50.430;6.806;2023-03-18T04:13:52;66093.88;;;6.18;100.00
46614;BME280;32338;50.430;6.806;2023-03-18T04:16:19;66091.28;;;6.18;100.00
46614;BME280;32338;50.430;6.806;2023-03-18T04:18:46;66090.34;;;6.19;100.00
46614;BME280;32338;50.430;6.806;2023-03-18T04:21:12;66090.91;;;6.20;100.00
46614;BME280;32338;50.430;6.806;2023-03-18T04:23:39;66098.38;;;6.22;100.00
46614;BME280;32338;50.430;6.806;2023-03-18T04:26:06;66094.28;;;6.23;100.00
46614;BME280;32338;50.430;6.806;2023-03-18T04:28:34;66099.50;;;6.23;100.00
46614;BME280;32338;50.430;6.806;2023-03-18T04:31:02;66084.88;;;6.09;100.00
46614;BME280;32338;50.430;6.806;2023-03-18T04:33:30;66072.59;;;6.05;100.00
46614;BME280;32338;50.430;6.806;2023-03-18T04:35:56;66084.88;;;6.09;100.00
46614;BME280;32338;50.430;6.806;2023-03-18T04:38:23;66078.00;;;6.08;100.00
46614;BME280;32338;50.430;6.806;2023-03-18T04:40:50;66086.38;;;6.08;100.00
46614;BME280;32338;50.430;6.806;2023-03-18T04:43:16;66088.47;;;6.15;100.00
46614;BME280;32338;50.430;6.806;2023-03-18T04:45:45;66081.72;;;6.09;100.00
46614;BME280;32338;50.430;6.806;2023-03-18T04:48:11;66080.75;;;6.03;100.00
46614;BME280;32338;50.430;6.806;2023-03-18T04:50:38;66067.91;;;5.98;100.00
46614;BME280;32338;50.430;6.806;2023-03-18T04:53:05;66076.28;;;5.99;100.00
46614;BME280;32338;50.430;6.806;2023-03-18T04:55:31;66069.91;;;5.98;100.00
46614;BME280;32338;50.430;6.806;2023-03-18T04:57:59;66067.13;;;5.95;100.00
46614;BME280;32338;50.430;6.806;2023-03-18T05:00:26;66067.47;;;5.93;100.00
46614;BME280;32338;50.430;6.806;2023-03-18T05:02:54;66065.78;;;5.92;100.00
46614;BME280;32338;50.430;6.806;2023-03-18T05:05:21;66060.97;;;5.90;100.00
46614;BME280;32338;50.430;6.806;2023-03-18T05:07:47;66062.97;;;5.89;100.00
46614;BME280;32338;50.430;6.806;2023-03-18T05:10:14;66062.78;;;5.87;100.00
46614;BME280;32338;50.430;6.806;2023-03-18T05:12:42;66051.97;;;5.81;100.00
46614;BME280;32338;50.430;6.806;2023-03-18T05:15:09;66041.16;;;5.76;100.00
46614;BME280;32338;50.430;6.806;2023-03-18T05:17:37;66041.50;;;5.74;100.00
46614;BME280;32338;50.430;6.806;2023-03-18T05:20:07;66042.97;;;5.73;100.00
46614;BME280;32338;50.430;6.806;2023-03-18T05:22:34;66044.47;;;5.72;100.00
46614;BME280;32338;50.430;6.806;2023-03-18T05:25:01;66041.88;;;5.72;100.00
46614;BME280;32338;50.430;6.806;2023-03-18T05:27:28;66039.84;;;5.73;100.00
46614;BME280;32338;50.430;6.806;2023-03-18T05:29:54;66039.97;;;5.68;100.00
46614;BME280;32338;50.430;6.806;2023-03-18T05:32:21;66030.84;;;5.64;100.00
46614;BME280;32338;50.430;6.806;2023-03-18T05:34:48;66037.31;;;5.61;100.00
46614;BME280;32338;50.430;6.806;2023-03-18T05:37:16;66028.56;;;5.55;100.00
46614;BME280;32338;50.430;6.806;2023-03-18T05:39:43;66025.81;;;5.60;100.00
46614;BME280;32338;50.430;6.806;2023-03-18T05:42:13;66024.84;;;5.54;100.00
46614;BME280;32338;50.430;6.806;2023-03-18T05:44:40;66020.69;;;5.48;100.00
46614;BME280;32338;50.430;6.806;2023-03-18T05:47:08;66025.75;;;5.52;100.00
46614;BME280;32338;50.430;6.806;2023-03-18T05:49:35;66022.81;;;5.55;100.00
46614;BME280;32338;50.430;6.806;2023-03-18T05:52:02;66025.63;;;5.57;100.00
46614;BME280;32338;50.430;6.806;2023-03-18T05:54:30;66028.97;;;5.60;100.00
46614;BME280;32338;50.430;6.806;2023-03-18T05:56:57;66031.56;;;5.60;100.00
46614;BME280;32338;50.430;6.806;2023-03-18T05:59:23;66023.91;;;5.56;100.00
46614;BME280;32338;50.430;6.806;2023-03-18T06:01:50;66028.22;;;5.57;100.00
46614;BME280;32338;50.430;6.806;2023-03-18T06:04:18;66020.34;;;5.50;100.00
46614;BME280;32338;50.430;6.806;2023-03-18T06:06:46;66018.69;;;5.48;100.00
46614;BME280;32338;50.430;6.806;2023-03-18T06:09:14;66024.47;;;5.56;100.00
46614;BME280;32338;50.430;6.806;2023-03-18T06:11:42;66022.63;;;5.59;100.00
46614;BME280;32338;50.430;6.806;2023-03-18T06:14:09;66011.94;;;5.42;100.00
46614;BME280;32338;50.430;6.806;2023-03-18T06:16:37;66011.94;;;5.42;100.00
46614;BME280;32338;50.430;6.806;2023-03-18T06:19:04;66018.09;;;5.48;100.00
46614;BME280;32338;50.430;6.806;2023-03-18T06:21:31;66018.88;;;5.51;100.00
46614;BME280;32338;50.430;6.806;2023-03-18T06:23:58;66019.78;;;5.49;100.00
46614;BME280;32338;50.430;6.806;2023-03-18T06:26:25;66014.38;;;5.47;100.00
46614;BME280;32338;50.430;6.806;2023-03-18T06:28:53;66019.78;;;5.49;100.00
46614;BME280;32338;50.430;6.806;2023-03-18T06:31:20;66024.44;;;5.49;100.00
46614;BME280;32338;50.430;6.806;2023-03-18T06:33:47;66025.41;;;5.55;100.00
46614;BME280;32338;50.430;6.806;2023-03-18T06:36:14;66028.97;;;5.60;100.00
46614;BME280;32338;50.430;6.806;2023-03-18T06:38:42;66036.63;;;5.65;100.00
46614;BME280;32338;50.430;6.806;2023-03-18T06:41:09;66047.84;;;5.75;100.00
46614;BME280;32338;50.430;6.806;2023-03-18T06:43:36;66062.78;;;5.87;100.00
46614;BME280;32338;50.430;6.806;2023-03-18T06:46:05;66071.41;;;5.97;100.00
46614;BME280;32338;50.430;6.806;2023-03-18T06:48:32;66066.16;;;5.90;100.00
46614;BME280;32338;50.430;6.806;2023-03-18T06:50:58;66062.22;;;5.86;100.00
46614;BME280;32338;50.430;6.806;2023-03-18T06:53:25;66058.13;;;5.87;100.00
46614;BME280;32338;50.430;6.806;2023-03-18T06:55:53;66060.59;;;5.92;100.00
46614;BME280;32338;50.430;6.806;2023-03-18T06:58:21;66078.53;;;6.01;100.00
46614;BME280;32338;50.430;6.806;2023-03-18T07:00:49;66084.34;;;6.09;100.00
46614;BME280;32338;50.430;6.806;2023-03-18T07:03:17;66090.91;;;6.20;100.00
46614;BME280;32338;50.430;6.806;2023-03-18T07:05:43;66102.84;;;6.26;100.00
46614;BME280;32338;50.430;6.806;2023-03-18T07:08:10;66103.28;;;6.31;100.00
46614;BME280;32338;50.430;6.806;2023-03-18T07:10:37;66118.56;;;6.40;100.00
46614;BME280;32338;50.430;6.806;2023-03-18T07:13:05;66125.31;;;6.46;100.00
46614;BME280;32338;50.430;6.806;2023-03-18T07:15:32;66132.81;;;6.56;100.00
46614;BME280;32338;50.430;6.806;2023-03-18T07:17:59;66131.47;;;6.52;100.00
46614;BME280;32338;50.430;6.806;2023-03-18T07:20:28;66126.44;;;6.47;100.00
46614;BME280;32338;50.430;6.806;2023-03-18T07:22:56;66132.41;;;6.51;100.00
46614;BME280;32338;50.430;6.806;2023-03-18T07:25:23;66141.78;;;6.64;100.00
46614;BME280;32338;50.430;6.806;2023-03-18T07:27:50;66142.16;;;6.62;100.00
46614;BME280;32338;50.430;6.806;2023-03-18T07:30:17;66142.91;;;6.65;100.00
46614;BME280;32338;50.430;6.806;2023-03-18T07:32:45;66151.13;;;6.70;100.00
46614;BME280;32338;50.430;6.806;2023-03-18T07:35:12;66153.59;;;6.75;100.00
46614;BME280;32338;50.430;6.806;2023-03-18T07:37:40;66153.59;;;6.75;100.00
46614;BME280;32338;50.430;6.806;2023-03-18T07:40:09;66159.75;;;6.80;100.00
46614;BME280;32338;50.430;6.806;2023-03-18T07:42:37;66175.66;;;6.90;100.00
46614;BME280;32338;50.430;6.806;2023-03-18T07:45:05;66184.84;;;7.01;100.00
46614;BME280;32338;50.430;6.806;2023-03-18T07:47:32;66189.19;;;7.10;100.00
46614;BME280;32338;50.430;6.806;2023-03-18T07:49:59;66220.38;;;7.29;100.00
46614;BME280;32338;50.430;6.806;2023-03-18T07:52:26;66217.06;;;7.33;100.00
46614;BME280;32338;50.430;6.806;2023-03-18T07:54:55;66238.22;;;7.50;100.00
46614;BME280;32338;50.430;6.806;2023-03-18T07:57:21;66251.50;;;7.60;100.00
46614;BME280;32338;50.430;6.806;2023-03-18T07:59:48;66264.06;;;7.74;100.00
46614;BME280;32338;50.430;6.806;2023-03-18T08:02:15;66277.13;;;7.81;100.00
46614;BME280;32338;50.430;6.806;2023-03-18T08:04:42;66281.69;;;7.92;100.00
46614;BME280;32338;50.430;6.806;2023-03-18T08:07:10;66294.25;;;8.06;100.00
46614;BME280;32338;50.430;6.806;2023-03-18T08:09:37;66306.44;;;8.15;100.00
46614;BME280;32338;50.430;6.806;2023-03-18T08:12:07;66315.41;;;8.23;100.00
46614;BME280;32338;50.430;6.806;2023-03-18T08:14:34;66328.16;;;8.33;100.00
46614;BME280;32338;50.430;6.806;2023-03-18T08:17:01;66328.16;;;8.33;100.00
46614;BME280;32338;50.430;6.806;2023-03-18T08:19:28;66335.47;;;8.39;100.00
46614;BME280;32338;50.430;6.806;2023-03-18T08:21:55;66355.72;;;8.58;100.00
46614;BME280;32338;50.430;6.806;2023-03-18T08:24:22;66368.84;;;8.72;100.00
46614;BME280;32338;50.430;6.806;2023-03-18T08:26:48;66365.28;;;8.67;100.00
46614;BME280;32338;50.430;6.806;2023-03-18T08:29:16;66368.50;;;8.74;100.00
46614;BME280;32338;50.430;6.806;2023-03-18T08:31:43;66367.75;;;8.71;100.00
46614;BME280;32338;50.430;6.806;2023-03-18T08:34:10;66373.56;;;8.79;100.00
46614;BME280;32338;50.430;6.806;2023-03-18T08:36:39;66382.38;;;8.85;100.00
46614;BME280;32338;50.430;6.806;2023-03-18T08:39:06;66398.13;;;8.99;100.00
46614;BME280;32338;50.430;6.806;2023-03-18T08:41:34;66426.81;;;9.25;100.00
46614;BME280;32338;50.430;6.806;2023-03-18T08:44:01;66440.88;;;9.38;100.00
46614;BME280;32338;50.430;6.806;2023-03-18T08:46:29;66445.38;;;9.43;100.00
46614;BME280;32338;50.430;6.806;2023-03-18T08:48:56;66449.91;;;9.47;100.00
46614;BME280;32338;50.430;6.806;2023-03-18T08:51:24;66440.53;;;9.40;100.00
46614;BME280;32338;50.430;6.806;2023-03-18T08:53:51;66439.97;;;9.40;100.00
46614;BME280;32338;50.430;6.806;2023-03-18T08:56:18;66452.13;;;9.49;100.00
46614;BME280;32338;50.430;6.806;2023-03-18T08:58:45;66463.41;;;9.59;100.00
46614;BME280;32338;50.430;6.806;2023-03-18T09:01:12;66469.03;;;9.64;100.00
46614;BME280;32338;50.430;6.806;2023-03-18T09:03:42;66476.72;;;9.69;100.00
46614;BME280;32338;50.430;6.806;2023-03-18T09:06:08;66487.81;;;9.84;100.00
46614;BME280;32338;50.430;6.806;2023-03-18T09:08:36;66511.28;;;10.03;100.00
46614;BME280;32338;50.430;6.806;2023-03-18T09:11:04;66520.28;;;10.11;100.00
46614;BME280;32338;50.430;6.806;2023-03-18T09:13:32;66533.78;;;10.23;100.00
46614;BME280;32338;50.430;6.806;2023-03-18T09:16:03;66531.53;;;10.21;100.00
46614;BME280;32338;50.430;6.806;2023-03-18T09:18:30;66518.59;;;10.10;100.00
46614;BME280;32338;50.430;6.806;2023-03-18T09:20:58;66510.16;;;10.02;100.00
46614;BME280;32338;50.430;6.806;2023-03-18T09:23:25;66511.84;;;10.03;100.00
46614;BME280;32338;50.430;6.806;2023-03-18T09:25:52;66509.56;;;10.01;100.00
46614;BME280;32338;50.430;6.806;2023-03-18T09:28:24;66512.97;;;10.04;100.00
46614;BME280;32338;50.430;6.806;2023-03-18T09:30:51;66513.72;;;10.07;100.00
46614;BME280;32338;50.430;6.806;2023-03-18T09:33:18;66508.09;;;10.02;100.00
46614;BME280;32338;50.430;6.806;2023-03-18T09:35:46;66511.84;;;10.03;100.00
46614;BME280;32338;50.430;6.806;2023-03-18T09:38:16;66521.97;;;10.13;100.00
46614;BME280;32338;50.430;6.806;2023-03-18T09:40:50;66535.66;;;10.28;100.00
46614;BME280;32338;50.430;6.806;2023-03-18T09:43:32;66551.66;;;10.37;100.00
46614;BME280;32338;50.430;6.806;2023-03-18T09:46:06;66554.09;;;10.42;100.00
46614;BME280;32338;50.430;6.806;2023-03-18T09:49:04;66570.44;;;10.57;100.00
46614;BME280;32338;50.430;6.806;2023-03-18T09:51:42;66573.81;;;10.60;100.00
46614;BME280;32338;50.430;6.806;2023-03-18T09:54:17;66578.88;;;10.65;100.00
46614;BME280;32338;50.430;6.806;2023-03-18T09:56:51;66583.97;;;10.69;100.00
46614;BME280;32338;50.430;6.806;2023-03-18T09:59:20;66579.66;;;10.68;100.00
46614;BME280;32338;50.430;6.806;2023-03-18T10:01:51;66581.50;;;10.65;100.00
46614;BME280;32338;50.430;6.806;2023-03-18T10:04:22;66591.47;;;10.79;100.00
46614;BME280;32338;50.430;6.806;2023-03-18T10:06:53;66598.63;;;10.83;100.00
46614;BME280;32338;50.430;6.806;2023-03-18T10:09:27;66624.91;;;11.05;100.00
46614;BME280;32338;50.430;6.806;2023-03-18T10:12:00;66634.69;;;11.16;100.00
46614;BME280;32338;50.430;6.806;2023-03-18T10:14:38;66623.97;;;11.06;100.00
46614;BME280;32338;50.430;6.806;2023-03-18T10:17:16;66645.59;;;11.28;100.00
46614;BME280;32338;50.430;6.806;2023-03-18T10:19:47;66657.81;;;11.37;100.00
46614;BME280;32338;50.430;6.806;2023-03-18T10:25:14;66659.50;;;11.39;100.00
46614;BME280;32338;50.430;6.806;2023-03-18T10:27:50;66641.06;;;11.24;100.00
46614;BME280;32338;50.430;6.806;2023-03-18T10:30:32;66632.44;;;11.14;100.00
46614;BME280;32338;50.430;6.806;2023-03-18T10:33:07;66646.31;;;11.24;100.00
46614;BME280;32338;50.430;6.806;2023-03-18T10:35:42;66655.19;;;11.37;100.00
46614;BME280;32338;50.430;6.806;2023-03-18T10:38:17;66665.91;;;11.47;100.00
46614;BME280;32338;50.430;6.806;2023-03-18T10:40:46;66698.59;;;11.77;100.00
46614;BME280;32338;50.430;6.806;2023-03-18T10:43:15;66709.50;;;11.82;100.00
46614;BME280;32338;50.430;6.806;2023-03-18T10:45:45;66703.13;;;11.81;100.00
46614;BME280;32338;50.430;6.806;2023-03-18T10:48:16;66713.06;;;11.88;100.00
46614;BME280;32338;50.430;6.806;2023-03-18T10:50:50;66706.28;;;11.81;100.00
46614;BME280;32338;50.430;6.806;2023-03-18T10:53:22;66715.13;;;11.87;100.00
46614;BME280;32338;50.430;6.806;2023-03-18T10:55:58;66694.66;;;11.73;100.00
46614;BME280;32338;50.430;6.806;2023-03-18T10:58:28;66697.66;;;11.71;100.00
46614;BME280;32338;50.430;6.806;2023-03-18T11:00:58;66689.03;;;11.68;100.00
46614;BME280;32338;50.430;6.806;2023-03-18T11:03:27;66694.47;;;11.71;100.00
46614;BME280;32338;50.430;6.806;2023-03-18T11:05:56;66712.13;;;11.89;100.00
46614;BME280;32338;50.430;6.806;2023-03-18T11:08:34;66725.13;;;12.01;100.00
46614;BME280;32338;50.430;6.806;2023-03-18T11:11:20;66742.63;;;12.17;100.00
46614;BME280;32338;50.430;6.806;2023-03-18T11:13:51;66767.06;;;12.35;100.00
46614;BME280;32338;50.430;6.806;2023-03-18T11:16:25;66769.50;;;12.39;100.00
46614;BME280;32338;50.430;6.806;2023-03-18T11:18:55;66787.56;;;12.56;100.00
46614;BME280;32338;50.430;6.806;2023-03-18T11:21:23;66771.75;;;12.41;100.00
46614;BME280;32338;50.430;6.806;2023-03-18T11:23:56;66773.66;;;12.45;100.00
46614;BME280;32338;50.430;6.806;2023-03-18T11:26:46;66763.13;;;12.38;100.00
46614;BME280;32338;50.430;6.806;2023-03-18T11:29:17;66767.81;;;12.38;100.00
46614;BME280;32338;50.430;6.806;2023-03-18T11:31:49;66771.00;;;12.45;100.00
46614;BME280;32338;50.430;6.806;2023-03-18T11:34:17;66773.66;;;12.45;100.00
46614;BME280;32338;50.430;6.806;2023-03-18T11:36:51;66789.25;;;12.57;100.00
46614;BME280;32338;50.430;6.806;2023-03-18T11:39:21;66793.22;;;12.61;100.00
46614;BME280;32338;50.430;6.806;2023-03-18T11:41:51;66787.38;;;12.53;100.00
46614;BME280;32338;50.430;6.806;2023-03-18T11:44:23;66809.41;;;12.73;100.00
46614;BME280;32338;50.430;6.806;2023-03-18T11:46:54;66800.53;;;12.68;100.00
46614;BME280;32338;50.430;6.806;2023-03-18T11:49:25;66794.72;;;12.60;100.00
46614;BME280;32338;50.430;6.806;2023-03-18T11:52:02;66828.78;;;12.93;100.00
46614;BME280;32338;50.430;6.806;2023-03-18T11:54:49;66833.84;;;12.98;100.00
46614;BME280;32338;50.430;6.806;2023-03-18T11:57:27;66839.31;;;13.01;100.00
46614;BME280;32338;50.430;6.806;2023-03-18T12:00:10;66839.50;;;13.03;100.00
46614;BME280;32338;50.430;6.806;2023-03-18T12:02:55;66871.69;;;13.33;100.00
46614;BME280;32338;50.430;6.806;2023-03-18T12:05:56;66862.47;;;13.29;100.00
46614;BME280;32338;50.430;6.806;2023-03-18T12:08:34;66882.44;;;13.42;100.00
46614;BME280;32338;50.430;6.806;2023-03-18T12:11:10;66896.75;;;13.58;100.00
46614;BME280;32338;50.430;6.806;2023-03-18T12:13:49;66891.66;;;13.53;100.00
46614;BME280;32338;50.430;6.806;2023-03-18T12:16:27;66866.59;;;13.28;100.00
46614;BME280;32338;50.430;6.806;2023-03-18T12:19:18;66880.19;;;13.40;100.00
46614;BME280;32338;50.430;6.806;2023-03-18T12:22:01;66884.69;;;13.44;100.00
46614;BME280;32338;50.430;6.806;2023-03-18T12:24:48;66855.88;;;13.18;100.00
46614;BME280;32338;50.430;6.806;2023-03-18T12:27:23;66831.78;;;12.98;100.00
46614;BME280;32338;50.430;6.806;2023-03-18T12:30:31;66851.72;;;13.12;100.00
46614;BME280;32338;50.430;6.806;2023-03-18T12:33:04;66856.44;;;13.19;100.00
46614;BME280;32338;50.430;6.806;2023-03-18T12:35:47;66844.03;;;13.07;100.00
46614;BME280;32338;50.430;6.806;2023-03-18T12:38:35;66851.16;;;13.11;100.00
46614;BME280;32338;50.430;6.806;2023-03-18T12:41:08;66861.16;;;13.25;100.00
46614;BME280;32338;50.430;6.806;2023-03-18T12:43:47;66866.59;;;13.28;100.00
46614;BME280;32338;50.430;6.806;2023-03-18T12:46:24;66850.41;;;13.16;100.00
46614;BME280;32338;50.430;6.806;2023-03-18T12:48:56;66845.34;;;13.11;100.00
46614;BME280;32338;50.430;6.806;2023-03-18T12:51:27;66826.16;;;12.93;100.00
46614;BME280;32338;50.430;6.806;2023-03-18T12:54:01;66838.75;;;13.07;100.00
46614;BME280;32338;50.430;6.806;2023-03-18T12:56:35;66847.41;;;13.10;100.00
46614;BME280;32338;50.430;6.806;2023-03-18T12:59:09;66848.91;;;13.17;100.00
46614;BME280;32338;50.430;6.806;2023-03-18T13:01:43;66851.94;;;13.14;100.00
46614;BME280;32338;50.430;6.806;2023-03-18T13:04:17;66841.59;;;13.10;100.00
46614;BME280;32338;50.430;6.806;2023-03-18T13:06:54;66825.03;;;12.92;100.00
46614;BME280;32338;50.430;6.806;2023-03-18T13:09:26;66787.97;;;12.61;100.00
46614;BME280;32338;50.430;6.806;2023-03-18T13:12:03;66801.31;;;12.71;100.00
46614;BME280;32338;50.430;6.806;2023-03-18T13:14:42;66800.00;;;12.67;100.00